createdAt,value
2022-09-23T00:03:34.284Z,0
2022-09-23T00:08:16.501Z,0
2022-09-23T00:12:58.812Z,0
2022-09-23T00:17:41.123Z,0
2022-09-23T00:22:23.379Z,0
2022-09-23T00:27:04.644Z,0
2022-09-23T00:31:47.089Z,0
2022-09-23T00:36:29.282Z,0
2022-09-23T00:41:11.472Z,0
2022-09-23T00:45:53.789Z,0
2022-09-23T00:50:36.138Z,0
2022-09-23T00:55:18.407Z,0
2022-09-23T01:00:00.619Z,0
2022-09-23T01:04:42.971Z,0
2022-09-23T01:09:24.278Z,0
2022-09-23T01:14:06.554Z,0
2022-09-23T01:18:48.764Z,0
2022-09-23T01:23:31.094Z,0
2022-09-23T01:28:13.384Z,0
2022-09-23T01:32:55.722Z,0
2022-09-23T01:37:37.910Z,0
2022-09-23T01:42:20.222Z,0
2022-09-23T01:47:02.439Z,0
2022-09-23T01:51:44.741Z,0
2022-09-23T01:56:27.070Z,0
2022-09-23T02:01:09.401Z,0
2022-09-23T02:05:51.590Z,0
2022-09-23T02:10:32.938Z,0
2022-09-23T02:15:15.199Z,0
2022-09-23T02:19:57.515Z,0
2022-09-23T02:24:39.764Z,0
2022-09-23T02:29:22.036Z,0
2022-09-23T02:34:04.344Z,0
2022-09-23T02:38:46.635Z,0
2022-09-23T02:43:28.882Z,0
2022-09-23T02:48:11.183Z,0
2022-09-23T02:52:53.390Z,0
2022-09-23T02:57:35.709Z,0
2022-09-23T03:02:18.013Z,0
2022-09-23T03:07:00.322Z,0
2022-09-23T03:11:41.541Z,0
2022-09-23T03:16:23.897Z,0
2022-09-23T03:21:06.159Z,0
2022-09-23T03:25:48.472Z,0
2022-09-23T03:30:30.691Z,0
2022-09-23T03:35:13.004Z,0
2022-09-23T03:39:55.377Z,0
2022-09-23T03:44:37.512Z,0
2022-09-23T03:49:19.829Z,0
2022-09-23T03:54:02.136Z,0
2022-09-23T03:58:44.361Z,0
2022-09-23T04:03:26.675Z,0
2022-09-23T04:08:08.973Z,0
2022-09-23T04:12:50.278Z,0
2022-09-23T04:17:31.594Z,0
2022-09-23T04:22:12.901Z,0
2022-09-23T04:26:54.237Z,0
2022-09-23T04:31:35.524Z,0
2022-09-23T04:36:17.733Z,0
2022-09-23T04:41:00.133Z,0
2022-09-23T04:45:42.394Z,0
2022-09-23T04:50:24.588Z,0
2022-09-23T04:55:06.882Z,0
2022-09-23T04:59:49.195Z,5
2022-09-23T05:04:31.474Z,11
2022-09-23T05:09:13.721Z,16
2022-09-23T05:13:56.065Z,22
2022-09-23T05:18:38.374Z,28
2022-09-23T05:23:20.553Z,39
2022-09-23T05:28:02.864Z,45
2022-09-23T05:32:44.204Z,50
2022-09-23T05:37:26.506Z,56
2022-09-23T05:42:08.702Z,67
2022-09-23T05:46:51.016Z,73
2022-09-23T05:51:33.333Z,78
2022-09-23T05:56:15.678Z,84
2022-09-23T06:00:57.847Z,90
2022-09-23T06:05:40.155Z,95
2022-09-23T06:10:22.390Z,101
2022-09-23T06:15:04.696Z,106
2022-09-23T06:19:46.996Z,112
2022-09-23T06:24:29.322Z,118
2022-09-23T06:29:11.515Z,129
2022-09-23T06:33:52.980Z,129
2022-09-23T06:38:35.147Z,135
2022-09-23T06:43:17.348Z,140
2022-09-23T06:47:59.660Z,140
2022-09-23T06:52:41.970Z,140
2022-09-23T06:57:24.186Z,135
2022-09-23T07:02:06.497Z,135
2022-09-23T07:06:48.811Z,140
2022-09-23T07:11:31.119Z,146
2022-09-23T07:16:13.335Z,146
2022-09-23T07:20:55.645Z,157
2022-09-23T07:25:37.955Z,163
2022-09-23T07:30:20.336Z,168
2022-09-23T07:35:01.495Z,168
2022-09-23T07:39:43.790Z,174
2022-09-23T07:44:26.098Z,180
2022-09-23T07:49:08.311Z,180
2022-09-23T07:58:32.941Z,264
2022-09-23T08:03:15.146Z,185
2022-09-23T08:07:57.460Z,191
2022-09-23T08:12:39.778Z,219
2022-09-23T08:17:21.987Z,219
2022-09-23T08:22:04.293Z,331
2022-09-23T08:26:46.658Z,241
2022-09-23T08:31:28.818Z,253
2022-09-23T08:36:10.132Z,258
2022-09-23T08:45:34.657Z,264
2022-09-23T08:50:16.970Z,270
2022-09-23T08:54:59.280Z,275
2022-09-23T08:59:41.492Z,309
2022-09-23T09:04:23.810Z,326
2022-09-23T09:09:06.117Z,337
2022-09-23T09:13:48.327Z,343
2022-09-23T09:18:30.664Z,360
2022-09-23T09:23:12.953Z,399
2022-09-23T09:27:55.178Z,416
2022-09-23T09:32:37.596Z,444
2022-09-23T09:37:18.787Z,1479
2022-09-23T09:42:01.104Z,990
2022-09-23T09:46:43.317Z,1558
2022-09-23T09:51:25.661Z,1676
2022-09-23T09:56:07.884Z,1985
2022-09-23T10:00:50.172Z,1676
2022-09-23T10:05:32.379Z,1906
2022-09-23T10:10:14.699Z,1805
2022-09-23T10:14:57.004Z,1636
2022-09-23T10:19:39.222Z,1861
2022-09-23T10:24:21.531Z,1833
2022-09-23T10:29:03.835Z,1743
2022-09-23T10:33:46.058Z,1906
2022-09-23T10:38:27.371Z,1906
2022-09-23T10:43:09.679Z,1890
2022-09-23T10:47:51.894Z,1963
2022-09-23T10:52:34.212Z,1777
2022-09-23T10:57:16.526Z,1518
2022-09-23T11:01:58.745Z,1822
2022-09-23T11:06:41.051Z,1912
2022-09-23T11:11:23.380Z,1912
2022-09-23T11:16:05.575Z,1828
2022-09-23T11:20:47.893Z,1828
2022-09-23T11:25:30.204Z,1929
2022-09-23T11:30:12.521Z,1963
2022-09-23T11:34:54.735Z,2058
2022-09-23T11:39:36.047Z,2131
2022-09-23T11:44:17.356Z,2418
2022-09-23T11:48:58.669Z,2480
2022-09-23T11:53:40.980Z,2030
2022-09-23T11:58:23.218Z,1873
2022-09-23T12:03:05.648Z,1603
2022-09-23T12:07:46.822Z,1659
2022-09-23T12:12:28.255Z,1513
2022-09-23T12:17:10.564Z,1681
2022-09-23T12:21:52.767Z,1681
2022-09-23T12:26:35.092Z,1681
2022-09-23T12:31:17.437Z,1878
2022-09-23T12:35:59.610Z,1895
2022-09-23T12:40:41.956Z,1597
2022-09-23T12:45:24.247Z,1237
2022-09-23T12:50:06.466Z,1243
2022-09-23T12:54:48.808Z,1687
2022-09-23T12:59:31.120Z,1580
2022-09-23T13:04:13.316Z,1665
2022-09-23T13:08:55.625Z,1710
2022-09-23T13:13:36.944Z,1693
2022-09-23T13:18:19.301Z,1479
2022-09-23T13:23:01.455Z,1631
2022-09-23T13:27:43.774Z,1794
2022-09-23T13:32:26.081Z,1620
2022-09-23T13:37:08.315Z,1710
2022-09-23T13:41:50.610Z,1670
2022-09-23T13:46:32.924Z,1732
2022-09-23T13:51:14.232Z,1777
2022-09-23T13:55:55.518Z,1715
2022-09-23T14:00:36.727Z,1648
2022-09-23T14:05:18.076Z,1586
2022-09-23T14:10:00.404Z,1383
2022-09-23T14:14:42.680Z,1417
2022-09-23T14:19:24.999Z,1355
2022-09-23T14:24:07.136Z,1226
2022-09-23T14:28:49.547Z,1378
2022-09-23T14:33:31.834Z,1316
2022-09-23T14:38:14.062Z,1119
2022-09-23T14:42:56.376Z,894
2022-09-23T14:47:38.683Z,399
2022-09-23T14:52:20.917Z,410
2022-09-23T14:57:03.170Z,416
2022-09-23T15:01:45.535Z,354
2022-09-23T15:06:26.693Z,348
2022-09-23T15:11:09.056Z,393
2022-09-23T15:15:51.369Z,382
2022-09-23T15:20:33.676Z,354
2022-09-23T15:25:15.869Z,281
2022-09-23T15:29:58.203Z,236
2022-09-23T15:34:40.516Z,264
2022-09-23T15:39:22.724Z,253
2022-09-23T15:44:04.895Z,180
2022-09-23T15:48:46.357Z,180
2022-09-23T15:53:27.641Z,157
2022-09-23T15:58:08.935Z,151
2022-09-23T16:02:50.197Z,151
2022-09-23T16:07:32.390Z,151
2022-09-23T16:12:14.775Z,146
2022-09-23T16:16:56.997Z,123
2022-09-23T16:21:39.187Z,112
2022-09-23T16:26:21.620Z,106
2022-09-23T16:31:03.833Z,84
2022-09-23T16:35:46.117Z,73
2022-09-23T16:40:28.450Z,61
2022-09-23T16:45:10.686Z,50
2022-09-23T16:49:52.881Z,39
2022-09-23T16:54:35.232Z,28
2022-09-23T16:59:16.550Z,22
2022-09-23T17:03:58.824Z,11
2022-09-23T17:08:41.008Z,5
2022-09-23T17:13:23.350Z,5
2022-09-23T17:18:05.691Z,0
2022-09-23T17:22:47.877Z,0
2022-09-23T17:27:30.146Z,0
2022-09-23T17:32:12.535Z,0
2022-09-23T17:36:54.672Z,0
2022-09-23T17:41:37.041Z,0
2022-09-23T17:46:19.316Z,0
2022-09-23T17:51:01.504Z,0
2022-09-23T17:55:43.885Z,0
2022-09-23T18:00:25.240Z,0
2022-09-23T18:05:07.437Z,0
2022-09-23T18:09:49.669Z,0
2022-09-23T18:14:31.961Z,0
2022-09-23T18:19:14.266Z,0
2022-09-23T18:23:56.493Z,0
2022-09-23T18:28:38.798Z,0
2022-09-23T18:33:21.113Z,0
2022-09-23T18:38:03.341Z,0
2022-09-23T18:42:45.675Z,0
2022-09-23T18:47:27.936Z,0
2022-09-23T18:52:10.220Z,0
2022-09-23T18:56:52.457Z,0
2022-09-23T19:01:33.852Z,0
2022-09-23T19:06:16.082Z,0
2022-09-23T19:10:58.287Z,0
2022-09-23T19:15:40.610Z,0
2022-09-23T19:20:22.912Z,0
2022-09-23T19:25:05.133Z,0
2022-09-23T19:29:47.450Z,0
2022-09-23T19:34:29.778Z,0
2022-09-23T19:39:11.957Z,0
2022-09-23T19:43:54.277Z,0
2022-09-23T19:48:36.584Z,0
2022-09-23T19:53:18.782Z,0
2022-09-23T19:58:01.098Z,0
2022-09-23T20:02:42.458Z,0
2022-09-23T20:07:24.762Z,0
2022-09-23T20:12:06.926Z,0
2022-09-23T20:16:49.238Z,0
2022-09-23T20:21:31.582Z,0
2022-09-23T20:26:13.953Z,0
2022-09-23T20:30:56.067Z,0
2022-09-23T20:35:38.398Z,0
2022-09-23T20:40:20.712Z,0
2022-09-23T20:45:02.899Z,0
2022-09-23T20:49:45.258Z,0
2022-09-23T20:54:27.570Z,0
2022-09-23T20:59:09.738Z,0
2022-09-23T21:03:51.064Z,0
2022-09-23T21:08:33.354Z,0
2022-09-23T21:13:15.667Z,0
2022-09-23T21:17:57.872Z,0
2022-09-23T21:22:40.205Z,0
2022-09-23T21:27:22.520Z,0
2022-09-23T21:32:04.715Z,0
2022-09-23T21:36:47.021Z,0
2022-09-23T21:46:11.621Z,0
2022-09-23T21:50:53.854Z,0
2022-09-23T21:55:36.171Z,0
2022-09-23T22:00:18.477Z,0
2022-09-23T22:04:59.687Z,0
2022-09-23T22:09:41.994Z,0
2022-09-23T22:14:24.351Z,0
2022-09-23T22:19:06.526Z,0
2022-09-23T22:23:48.822Z,0
2022-09-23T22:28:31.139Z,0
2022-09-23T22:33:13.448Z,0
2022-09-23T22:37:55.695Z,0
2022-09-23T22:42:37.976Z,0
2022-09-23T22:47:20.286Z,0
2022-09-23T22:52:02.520Z,0
2022-09-23T22:56:44.807Z,0
2022-09-23T23:01:27.177Z,0
2022-09-23T23:06:08.427Z,0
2022-09-23T23:10:50.639Z,0
2022-09-23T23:15:33.000Z,0
2022-09-23T23:20:15.266Z,0
2022-09-23T23:24:57.530Z,0
2022-09-23T23:29:39.788Z,0
2022-09-23T23:34:22.098Z,0
2022-09-23T23:39:04.304Z,0
2022-09-23T23:43:46.617Z,0
2022-09-23T23:48:28.931Z,0
2022-09-23T23:53:11.140Z,0
2022-09-23T23:57:53.450Z,0
